createdAt,value
2023-09-06T00:04:11.897Z,101472.41
2023-09-06T00:09:33.871Z,101482.13
2023-09-06T00:14:55.699Z,101487.94
2023-09-06T00:20:17.470Z,101486.53
2023-09-06T00:25:39.195Z,101475.88
2023-09-06T00:31:01.020Z,101475.81
2023-09-06T00:36:22.876Z,101475.94
2023-09-06T00:41:44.678Z,101474.72
2023-09-06T00:47:06.597Z,101475.19
2023-09-06T00:52:28.491Z,101477.09
2023-09-06T00:57:50.470Z,101469.03
2023-09-06T01:03:12.795Z,101475.69
2023-09-06T01:08:43.704Z,101482.78
2023-09-06T01:14:05.435Z,101497.56
2023-09-06T01:19:30.776Z,101487.94
2023-09-06T01:24:53.425Z,101492.19
2023-09-06T01:30:15.441Z,101487.13
2023-09-06T01:35:37.196Z,101488.72
2023-09-06T01:40:58.921Z,101492.22
2023-09-06T01:46:21.771Z,101487.38
2023-09-06T01:51:45.047Z,101490.38
2023-09-06T01:57:06.819Z,101494.13
2023-09-06T02:02:28.724Z,101496.72
2023-09-06T02:07:50.620Z,101493.69
2023-09-06T02:13:12.387Z,101501.09
2023-09-06T02:18:34.208Z,101495.25
2023-09-06T02:23:55.948Z,101496.06
2023-09-06T02:29:17.650Z,101493.13
2023-09-06T02:34:39.413Z,101488.19
2023-09-06T02:40:02.093Z,101479.09
2023-09-06T02:45:23.866Z,101487.59
2023-09-06T02:50:45.712Z,101498.06
2023-09-06T02:56:07.457Z,101501.59
2023-09-06T03:01:29.261Z,101506.19
2023-09-06T03:06:51.231Z,101505.19
2023-09-06T03:12:13.038Z,101507.00
2023-09-06T03:17:34.906Z,101511.88
2023-09-06T03:22:56.634Z,101511.34
2023-09-06T03:28:18.897Z,101514.28
2023-09-06T03:33:40.752Z,101515.00
2023-09-06T03:39:02.508Z,101511.63
2023-09-06T03:44:24.230Z,101512.78
2023-09-06T03:49:46.126Z,101508.69
2023-09-06T03:55:08.025Z,101514.03
2023-09-06T04:00:29.793Z,101514.09
2023-09-06T04:05:51.528Z,101511.56
2023-09-06T04:11:14.900Z,101526.03
2023-09-06T04:16:38.330Z,101519.41
2023-09-06T04:22:00.147Z,101524.19
2023-09-06T04:27:21.897Z,101518.56
2023-09-06T04:32:44.561Z,101514.63
2023-09-06T04:38:06.648Z,101514.81
2023-09-06T04:43:28.574Z,101526.66
2023-09-06T04:48:50.446Z,101529.34
2023-09-06T04:54:12.184Z,101529.16
2023-09-06T04:59:36.782Z,101532.78
2023-09-06T05:04:58.496Z,101530.69
2023-09-06T05:10:20.458Z,101531.44
2023-09-06T05:15:42.211Z,101527.53
2023-09-06T05:21:04.092Z,101531.28
2023-09-06T05:26:25.828Z,101535.81
2023-09-06T05:31:47.592Z,101535.25
2023-09-06T05:37:09.385Z,101539.41
2023-09-06T05:42:31.363Z,101533.78
2023-09-06T05:47:53.757Z,101545.94
2023-09-06T05:53:15.525Z,101545.53
2023-09-06T05:58:37.266Z,101542.53
2023-09-06T06:03:59.022Z,101538.44
2023-09-06T06:09:20.856Z,101541.63
2023-09-06T06:14:42.618Z,101544.09
2023-09-06T06:20:05.126Z,101553.66
2023-09-06T06:25:26.967Z,101556.94
2023-09-06T06:30:48.712Z,101548.56
2023-09-06T06:36:10.500Z,101550.31
2023-09-06T06:41:32.370Z,101552.81
2023-09-06T06:46:54.169Z,101558.78
2023-09-06T06:52:16.008Z,101560.94
2023-09-06T06:57:37.759Z,101569.78
2023-09-06T07:02:59.616Z,101572.16
2023-09-06T07:08:21.513Z,101585.13
2023-09-06T07:13:43.922Z,101582.16
2023-09-06T07:19:06.206Z,101590.66
2023-09-06T07:24:28.073Z,101596.13
2023-09-06T07:29:50.213Z,101597.59
2023-09-06T07:35:12.176Z,101583.53
2023-09-06T07:40:34.054Z,101581.53
2023-09-06T07:45:59.659Z,101595.25
2023-09-06T07:51:21.575Z,101593.63
2023-09-06T07:56:43.349Z,101595.25
2023-09-06T08:02:05.130Z,101595.09
2023-09-06T08:07:26.902Z,101590.63
2023-09-06T08:12:48.662Z,101576.63
2023-09-06T08:18:11.415Z,101584.22
2023-09-06T08:23:33.260Z,101573.75
2023-09-06T08:28:55.239Z,101584.34
2023-09-06T08:34:16.985Z,101582.22
2023-09-06T08:39:38.730Z,101585.91
2023-09-06T08:45:02.363Z,101583.09
2023-09-06T08:50:24.349Z,101578.41
2023-09-06T08:55:46.614Z,101577.00
2023-09-06T09:01:08.641Z,101568.16
2023-09-06T09:06:30.551Z,101571.53
2023-09-06T09:11:53.367Z,101563.31
2023-09-06T09:17:15.121Z,101573.31
2023-09-06T09:22:37.002Z,101567.13
2023-09-06T09:27:59.911Z,101569.38
2023-09-06T09:33:28.394Z,101576.22
2023-09-06T09:38:51.569Z,101576.94
2023-09-06T09:44:16.970Z,101555.97
2023-09-06T09:49:40.633Z,101565.16
2023-09-06T09:55:03.565Z,101557.78
2023-09-06T10:00:27.181Z,101540.66
2023-09-06T10:05:49.167Z,101530.94
2023-09-06T10:11:12.430Z,101548.31
2023-09-06T10:16:34.180Z,101549.19
2023-09-06T10:21:56.485Z,101549.84
2023-09-06T10:27:18.273Z,101551.75
2023-09-06T10:32:41.502Z,101549.19
2023-09-06T10:38:11.521Z,101549.84
2023-09-06T10:44:03.984Z,101540.06
2023-09-06T10:49:29.292Z,101534.28
2023-09-06T10:54:54.646Z,101545.44
2023-09-06T11:00:20.926Z,101534.34
2023-09-06T11:05:45.912Z,101536.41
2023-09-06T11:11:10.676Z,101524.72
2023-09-06T11:16:32.598Z,101503.44
2023-09-06T11:22:10.827Z,101510.22
2023-09-06T11:27:32.768Z,101501.53
2023-09-06T11:32:57.627Z,101490.81
2023-09-06T11:38:22.696Z,101489.09
2023-09-06T11:43:44.857Z,101490.81
2023-09-06T11:49:07.112Z,101484.81
2023-09-06T11:54:28.931Z,101474.31
2023-09-06T11:59:53.437Z,101476.03
2023-09-06T12:05:15.473Z,101476.59
2023-09-06T12:10:37.227Z,101473.19
2023-09-06T12:16:03.296Z,101475.13
2023-09-06T12:21:25.053Z,101474.19
2023-09-06T12:26:46.859Z,101465.81
2023-09-06T12:32:08.710Z,101460.13
2023-09-06T12:37:30.417Z,101447.91
2023-09-06T12:42:52.115Z,101460.44
2023-09-06T12:48:13.935Z,101456.81
2023-09-06T12:53:36.272Z,101446.28
2023-09-06T12:58:58.043Z,101442.06
2023-09-06T13:04:19.922Z,101432.59
2023-09-06T13:09:41.728Z,101426.72
2023-09-06T13:15:03.758Z,101427.13
2023-09-06T13:20:25.612Z,101434.69
2023-09-06T13:25:47.366Z,101429.69
2023-09-06T13:31:09.424Z,101430.38
2023-09-06T13:36:31.724Z,101424.34
2023-09-06T13:41:53.794Z,101421.66
2023-09-06T13:47:15.687Z,101419.81
2023-09-06T13:52:37.476Z,101425.56
2023-09-06T13:57:59.292Z,101421.44
2023-09-06T14:03:21.214Z,101416.13
2023-09-06T14:08:43.078Z,101408.03
2023-09-06T14:14:04.990Z,101409.38
2023-09-06T14:19:28.981Z,101412.47
2023-09-06T14:24:50.694Z,101407.97
2023-09-06T14:30:12.812Z,101407.97
2023-09-06T14:35:41.507Z,101414.16
2023-09-06T14:41:03.275Z,101403.47
2023-09-06T14:46:25.152Z,101402.63
2023-09-06T14:51:46.935Z,101404.09
2023-09-06T14:57:08.746Z,101402.84
2023-09-06T15:02:30.632Z,101406.00
2023-09-06T15:07:52.501Z,101395.50
2023-09-06T15:13:14.245Z,101401.41
2023-09-06T15:18:36.178Z,101394.31
2023-09-06T15:23:58.007Z,101391.50
2023-09-06T15:29:19.748Z,101397.69
2023-09-06T15:34:41.470Z,101399.53
2023-09-06T15:40:03.475Z,101397.84
2023-09-06T15:45:25.782Z,101393.09
2023-09-06T15:50:47.587Z,101401.56
2023-09-06T15:56:09.459Z,101407.41
2023-09-06T16:01:32.264Z,101404.72
2023-09-06T16:06:54.181Z,101407.66
2023-09-06T16:12:15.974Z,101413.28
2023-09-06T16:17:37.759Z,101417.13
2023-09-06T16:22:59.524Z,101409.25
2023-09-06T16:28:21.339Z,101410.25
2023-09-06T16:33:43.165Z,101421.53
2023-09-06T16:39:04.976Z,101421.38
2023-09-06T16:44:28.429Z,101434.25
2023-09-06T16:49:52.149Z,101428.38
2023-09-06T16:55:13.930Z,101435.16
2023-09-06T17:00:35.795Z,101438.84
2023-09-06T17:05:57.533Z,101428.16
2023-09-06T17:11:19.473Z,101435.69
2023-09-06T17:16:41.399Z,101437.75
2023-09-06T17:22:03.295Z,101445.72
2023-09-06T17:27:25.055Z,101439.59
2023-09-06T17:33:14.338Z,101446.53
2023-09-06T17:38:36.245Z,101459.69
2023-09-06T17:43:57.932Z,101467.22
2023-09-06T17:49:19.962Z,101472.78
2023-09-06T17:54:41.843Z,101476.19
2023-09-06T18:00:04.942Z,101470.13
2023-09-06T18:05:27.283Z,101478.34
2023-09-06T18:10:49.265Z,101480.25
2023-09-06T18:16:13.174Z,101476.84
2023-09-06T18:21:36.255Z,101492.25
2023-09-06T18:27:07.946Z,101492.50
2023-09-06T18:32:30.350Z,101495.25
2023-09-06T18:37:52.129Z,101503.03
2023-09-06T18:43:14.211Z,101499.84
2023-09-06T18:48:36.468Z,101505.94
2023-09-06T18:53:58.466Z,101500.28
2023-09-06T18:59:20.224Z,101500.09
2023-09-06T19:04:43.624Z,101505.84
2023-09-06T19:10:07.039Z,101513.16
2023-09-06T19:15:28.779Z,101506.00
2023-09-06T19:20:50.517Z,101509.16
2023-09-06T19:26:12.313Z,101511.97
2023-09-06T19:31:34.079Z,101506.19
2023-09-06T19:36:56.469Z,101511.13
2023-09-06T19:42:18.181Z,101515.72
2023-09-06T19:47:40.100Z,101517.88
2023-09-06T19:53:02.093Z,101517.66
2023-09-06T19:58:23.852Z,101518.91
2023-09-06T20:03:45.684Z,101524.75
2023-09-06T20:09:07.688Z,101532.47
2023-09-06T20:14:29.774Z,101529.13
2023-09-06T20:19:51.597Z,101531.63
2023-09-06T20:25:13.369Z,101530.59
2023-09-06T20:30:38.929Z,101532.97
2023-09-06T20:36:01.437Z,101527.19
2023-09-06T20:41:23.332Z,101537.47
2023-09-06T20:46:45.133Z,101543.09
2023-09-06T20:52:07.049Z,101536.47
2023-09-06T20:57:28.871Z,101536.75
2023-09-06T21:02:50.714Z,101540.53
2023-09-06T21:08:12.506Z,101553.09
2023-09-06T21:13:34.296Z,101544.53
2023-09-06T21:18:56.071Z,101548.84
2023-09-06T21:24:17.923Z,101557.41
2023-09-06T21:29:39.680Z,101559.13
2023-09-06T21:35:01.807Z,101563.72
2023-09-06T21:40:23.643Z,101561.88
2023-09-06T21:45:45.542Z,101567.66
2023-09-06T21:51:12.286Z,101576.00
2023-09-06T21:56:34.087Z,101581.06
2023-09-06T22:01:56.078Z,101574.53
2023-09-06T22:07:17.850Z,101585.06
2023-09-06T22:12:39.637Z,101591.50
2023-09-06T22:18:01.498Z,101596.88
2023-09-06T22:23:23.434Z,101591.66
2023-09-06T22:28:45.178Z,101590.94
2023-09-06T22:34:06.972Z,101598.22
2023-09-06T22:39:28.949Z,101598.72
2023-09-06T22:44:50.702Z,101614.59
2023-09-06T22:50:12.486Z,101621.47
2023-09-06T22:55:34.230Z,101619.69
2023-09-06T23:01:04.412Z,101624.16
2023-09-06T23:06:26.407Z,101616.59
2023-09-06T23:11:49.937Z,101612.16
2023-09-06T23:17:11.803Z,101610.44
2023-09-06T23:22:33.646Z,101609.97
2023-09-06T23:27:55.455Z,101604.56
2023-09-06T23:33:17.251Z,101613.47
2023-09-06T23:38:39.017Z,101613.88
2023-09-06T23:44:00.770Z,101612.38
2023-09-06T23:49:22.528Z,101621.63
2023-09-06T23:54:48.149Z,101627.63
